Warning: Javascript must be enabled to use all the features on this page!


Page Loading - Please Wait...

Click to hideNews Bulletins

Peak Streamflow for the Nation

USGS 03264000 Greenville Creek near Bradford OH

Darke County, Ohio
Hydrologic Unit Code 05080001
Latitude  40°06'08", Longitude  84°25'48" NAD27
Drainage area 193  square miles
Contributing drainage area 193  square miles
Gage datum 948.38 feet above NAVD88
Output formats
Table
Graph
Tab-separated file
peakfq (watstore) format
Reselect output format
Water
Year
Date Gage
Height
(feet)
Stream-
flow
(cfs)
1913 1913-03 12.10Bd 18,2007,Bd
1932 1932-01-18 5.10 1,780
1933 1933-05-14 9.20 9,320
1934 1934-03-27 4.45 1,320
1935 1935-05-03 5.20 1,780
1936 1936-02-26 7.651 2,800
1937 1937-01-15 9.10 8,960
1938 1938-04-07 7.98 5,200
1939 1939-06-19 7.40 3,780
1940 1940-04-21 6.50 2,680
1941 1941-06-12 4.00 1,030
1942 1942-04-10 6.20 2,410
1943 1943-03-19 8.03 5,350
1944 1944-04-12 8.17 5,000
1945 1945-06-18 7.33 3,550
1946 1945-12-26 6.10 2,310
1947 1947-06-02 6.88 3,300
1948 1948-04-14 6.56 2,880
1949 1949-01-05 8.00 5,110
1950 1950-02-14 8.33 6,000
1951 1951-02-21 7.86 4,790
1952 1952-01-27 8.53 6,620
1953 1953-05-23 6.58 2,940
1954 1954-03-30 4.73 1,320
1955 1955-03-22   1,780
1956 1956-02-26 7.62 4,320
1957 1957-06-28   5,460
1958 1958-06-14 8.85 5,860
1959 1959-01-21 8.93 5,990
1960 1960-02-11 4.93 1,480
1961 1961-04-26 7.14 3,490
1962 1962-02-27 6.62 2,940
1963 1963-03-05 10.311 5,400
1964 1964-04-21 8.21 4,830
1965 1965-04-26 6.22 2,540
1966 1966-02-11 4.61 1,170
1967 1966-12-10 7.19 2,940
1968 1968-05-28 7.59 3,300
1969 1969-08-10 6.96 2,680
1970 1970-01-29 7.12 2,880
1971 1971-02-23 6.26 2,400
1972 1972-04-22 5.53 1,830
1973 1972-11-15 6.77 2,580
1974 1974-01-19 5.99 1,970
1975 1975-02-24 8.95 4,550
1976 1976-01-26 6.40 2,340
1977 1977-04-03 5.502 1,720
1978 1978-03-15 8.32 3,960
1979 1979-02-24 8.40 4,170
1980 1980-06-03 7.89 3,650
1981 1981-06-07 6.62 2,520
1982 1982-02-17 8.03 3,800
1983 1983-05-02 5.13 1,480
1984 1984-03-17 6.02 2,090
1985 1985-02-24 7.75 3,650
1986 1985-12-12 6.91 2,890
1987 1987-07-02 7.51 3,430
1988 1988-02-02 4.24 1,130
1989 1989-05-27 7.88 3,760
1990 1990-02-16 7.18 3,150
1991 1990-12-30 9.46 5,360
1992 1992-04-18 5.43 1,840
1993 1993-07-03 5.69 2,010
1994 1993-11-15 8.28 4,140
1995 1995-05-20 7.26 3,220
1996 1996-01-19 8.57 4,420
1997 1997-06-01 9.56 5,470
1998 1998-04-10 6.24 2,360
1999 1999-01-23 7.45 3,460
2000 2000-04-09 6.16 2,300
2001 2001-08-24 4.89 1,450
2002 2002-04-14 6.72 2,740
2003 2003-09-02 8.79 4,660
2004 2004-01-05 7.75 3,630
2005 2005-01-06 9.84 5,870
2006 2006-03-13 6.27 2,590
2007 2007-03-24 8.05 4,090
2008 2008-06-05 7.82 3,880
2009 2009-02-12 5.35 1,940
2010 2010-03-14 6.75 2,960
2011 2011-03-06 8.36 4,380
2012 2011-12-06 6.19 2,530
2013 2013-01-14 6.72 2,940
2014 2013-12-22 9.95 5,990
2015 2015-07-14 8.98 4,980
2016 2015-12-28 8.00 4,040
2017 2017-05-05 7.53 3,620
2018 2018-04-04 8.20 4,230
2019 2018-11-03 7.37 3,480
2020 2020-01-12 6.18 2,520
2021 2021-03-18 7.06 3,210
2022 2022-03-08 7.23 3,360
2023 2023-03-05 6.58  
?
  Peak Gage-Height Qualification Codes.
?
  Peak Streamflow Qualification Codes.